CheckWX is a tool to help pilots better visualize weather data.  It is not intended as a substitute for an official pre-flight weather briefing.

14:57:41 UTC

KMGG METAR
Maple Lake Municipal-Bill Mavencamp Sr Field Airport
Maple Lake, Minnesota, USA
Current

22 mins ago

KMGG 171436Z AUTO 00000KT 10SM 23/18 A2986 RMK AO2 T02270177
Observed
Aug-17 @ 14:36 UTC
Visibility
10 SM
Temperature
23°C / 73°F
Dewpoint
18°C / 64°F
Humidity
74%
Altimeter
29.86" Hg
Pressure
1011.22 hPa
Previous

41 mins ago

KMGG 171417Z AUTO 00000KT 10SM 22/17 A2986 RMK AO2 T02170172
Observed
Aug-17 @ 14:17 UTC
Visibility
10 SM
Temperature
22°C / 72°F
Dewpoint
17°C / 63°F
Humidity
73%
Altimeter
29.86" Hg
Pressure
1011.22 hPa
Previous

60 mins ago

KMGG 171358Z AUTO 00000KT 10SM 21/18 A2986 RMK AO2 T02110179
Observed
Aug-17 @ 13:58 UTC
Visibility
10 SM
Temperature
21°C / 70°F
Dewpoint
18°C / 64°F
Humidity
83%
Altimeter
29.86" Hg
Pressure
1011.22 hPa